createdAt,value
2018-12-16T00:01:38.208Z,30.17
2018-12-16T00:04:08.091Z,27.45
2018-12-16T00:06:38.426Z,31.23
2018-12-16T00:09:06.775Z,27.27
2018-12-16T00:11:34.258Z,28.15
2018-12-16T00:14:01.697Z,28.02
2018-12-16T00:16:29.250Z,28.83
2018-12-16T00:18:58.439Z,22.80
2018-12-16T00:21:25.907Z,28.60
2018-12-16T00:23:55.868Z,32.60
2018-12-16T00:26:31.815Z,25.75
2018-12-16T00:29:15.071Z,34.40
2018-12-16T00:31:42.678Z,27.62
2018-12-16T00:34:12.961Z,31.45
2018-12-16T00:36:41.128Z,32.23
2018-12-16T00:39:08.618Z,31.15
2018-12-16T00:41:37.797Z,24.43
2018-12-16T00:44:05.278Z,24.05
2018-12-16T00:46:33.490Z,29.85
2018-12-16T00:49:02.254Z,27.20
2018-12-16T00:51:31.131Z,27.15
2018-12-16T00:53:59.748Z,30.02
2018-12-16T00:56:27.257Z,28.25
2018-12-16T00:58:54.799Z,34.53
2018-12-16T01:01:22.339Z,30.25
2018-12-16T01:03:49.838Z,27.98
2018-12-16T01:06:18.179Z,27.20
2018-12-16T01:08:46.265Z,21.23
2018-12-16T01:11:13.929Z,26.48
2018-12-16T01:13:41.498Z,23.00
2018-12-16T01:16:09.101Z,25.35
2018-12-16T01:18:36.639Z,22.75
2018-12-16T01:21:04.152Z,27.37
2018-12-16T01:23:32.128Z,22.73
2018-12-16T01:25:59.568Z,34.60
2018-12-16T01:28:27.598Z,27.20
2018-12-16T01:30:55.225Z,24.30
2018-12-16T01:33:22.753Z,43.52
2018-12-16T01:35:50.424Z,32.98
2018-12-16T01:38:18.010Z,28.07
2018-12-16T01:40:45.632Z,32.88
2018-12-16T01:43:13.272Z,32.65
2018-12-16T01:45:40.811Z,23.22
2018-12-16T01:48:08.188Z,35.05
2018-12-16T01:50:36.270Z,21.52
2018-12-16T01:53:03.797Z,24.85
2018-12-16T01:55:31.467Z,31.85
2018-12-16T01:57:58.995Z,26.80
2018-12-16T02:00:27.987Z,25.65
2018-12-16T02:02:55.743Z,28.80
2018-12-16T02:05:23.293Z,32.88
2018-12-16T02:07:51.746Z,26.77
2018-12-16T02:10:19.579Z,32.17
2018-12-16T02:12:47.063Z,34.13
2018-12-16T02:15:14.682Z,24.10
2018-12-16T02:17:42.095Z,27.93
2018-12-16T02:20:09.802Z,38.80
2018-12-16T02:22:37.261Z,27.98
2018-12-16T02:25:05.859Z,33.55
2018-12-16T02:27:33.499Z,30.90
2018-12-16T02:30:01.031Z,29.57
2018-12-16T02:32:28.490Z,30.65
2018-12-16T02:34:56.030Z,32.38
2018-12-16T02:37:24.450Z,29.95
2018-12-16T02:39:52.633Z,26.95
2018-12-16T02:42:20.351Z,28.12
2018-12-16T02:44:47.806Z,32.85
2018-12-16T02:47:15.386Z,28.45
2018-12-16T02:49:42.862Z,23.35
2018-12-16T02:52:10.245Z,25.57
2018-12-16T02:54:37.910Z,30.27
2018-12-16T02:57:05.335Z,27.27
2018-12-16T02:59:32.719Z,26.25
2018-12-16T03:02:00.218Z,30.82
2018-12-16T03:04:28.392Z,30.25
2018-12-16T03:06:55.877Z,38.50
2018-12-16T03:09:23.359Z,28.90
2018-12-16T03:11:50.813Z,27.67
2018-12-16T03:14:18.430Z,32.63
2018-12-16T03:16:46.099Z,29.52
2018-12-16T03:19:13.636Z,29.45
2018-12-16T03:21:41.113Z,30.55
2018-12-16T03:24:08.658Z,27.30
2018-12-16T03:26:36.468Z,26.40
2018-12-16T03:29:04.166Z,25.85
2018-12-16T03:31:31.712Z,34.95
2018-12-16T03:33:59.453Z,31.35
2018-12-16T03:36:27.948Z,27.77
2018-12-16T03:38:55.515Z,28.40
2018-12-16T03:41:23.064Z,29.67
2018-12-16T03:43:51.272Z,29.87
2018-12-16T03:46:18.699Z,31.90
2018-12-16T03:48:46.340Z,29.75
2018-12-16T03:51:13.797Z,37.40
2018-12-16T03:53:41.278Z,27.55
2018-12-16T03:56:08.884Z,34.48
2018-12-16T03:58:43.124Z,28.30
2018-12-16T04:01:10.773Z,28.07
2018-12-16T04:03:38.253Z,30.25
2018-12-16T04:06:05.633Z,29.90
2018-12-16T04:08:33.083Z,27.15
2018-12-16T04:11:00.668Z,29.27
2018-12-16T04:13:29.555Z,26.52
2018-12-16T04:15:57.058Z,29.57
2018-12-16T04:18:24.538Z,42.05
2018-12-16T04:20:52.124Z,34.80
2018-12-16T04:23:27.292Z,40.50
2018-12-16T04:25:49.932Z,35.55
2018-12-16T04:28:17.728Z,35.58
2018-12-16T04:30:45.856Z,36.48
2018-12-16T04:33:13.404Z,36.25
2018-12-16T04:35:40.815Z,44.10
2018-12-16T04:38:08.577Z,37.35
2018-12-16T04:40:36.104Z,35.90
2018-12-16T04:43:03.690Z,42.67
2018-12-16T04:45:32.070Z,32.78
2018-12-16T04:48:00.160Z,39.38
2018-12-16T04:50:27.743Z,36.40
2018-12-16T04:52:56.749Z,38.78
2018-12-16T04:55:24.135Z,37.67
2018-12-16T04:57:51.540Z,40.33
2018-12-16T05:00:19.841Z,35.63
2018-12-16T05:02:48.392Z,42.25
2018-12-16T05:05:15.940Z,47.88
2018-12-16T05:07:44.180Z,43.92
2018-12-16T05:10:23.138Z,44.95
2018-12-16T05:12:50.577Z,39.33
2018-12-16T05:15:18.436Z,39.70
2018-12-16T05:17:45.921Z,38.00
2018-12-16T05:20:14.176Z,40.25
2018-12-16T05:22:41.821Z,40.83
2018-12-16T05:25:09.968Z,32.25
2018-12-16T05:27:37.482Z,41.68
2018-12-16T05:30:05.318Z,39.23
2018-12-16T05:32:33.669Z,40.33
2018-12-16T05:35:01.327Z,40.88
2018-12-16T05:37:28.904Z,44.83
2018-12-16T05:39:56.448Z,51.58
2018-12-16T05:42:24.047Z,43.65
2018-12-16T05:44:52.987Z,38.05
2018-12-16T05:47:21.609Z,44.53
2018-12-16T05:49:50.565Z,42.93
2018-12-16T05:52:18.135Z,39.55
2018-12-16T05:54:45.602Z,37.93
2018-12-16T05:57:13.095Z,44.13
2018-12-16T05:59:40.709Z,31.35
2018-12-16T06:02:08.872Z,35.25
2018-12-16T06:04:36.324Z,37.17
2018-12-16T06:07:05.173Z,35.00
2018-12-16T06:09:33.500Z,39.10
2018-12-16T06:12:01.059Z,34.50
2018-12-16T06:14:28.525Z,40.38
2018-12-16T06:16:56.143Z,42.17
2018-12-16T06:19:23.637Z,43.15
2018-12-16T06:21:51.130Z,40.85
2018-12-16T06:24:18.550Z,47.03
2018-12-16T06:26:46.082Z,43.80
2018-12-16T06:29:14.514Z,51.77
2018-12-16T06:31:42.150Z,54.53
2018-12-16T06:34:09.719Z,46.45
2018-12-16T06:36:37.222Z,50.17
2018-12-16T06:39:05.990Z,46.28
2018-12-16T06:41:33.797Z,43.98
2018-12-16T06:44:01.240Z,50.38
2018-12-16T06:46:29.405Z,54.90
2018-12-16T06:48:57.119Z,46.05
2018-12-16T06:51:24.611Z,48.42
2018-12-16T06:53:52.030Z,42.58
2018-12-16T06:56:20.021Z,44.98
2018-12-16T06:58:48.116Z,40.60
2018-12-16T07:01:18.080Z,38.80
2018-12-16T07:03:46.518Z,39.58
2018-12-16T07:06:13.949Z,70.90
2018-12-16T07:08:42.166Z,41.68
2018-12-16T07:11:09.763Z,39.90
2018-12-16T07:13:37.913Z,45.92
2018-12-16T07:16:05.482Z,40.43
2018-12-16T07:18:32.971Z,40.88
2018-12-16T07:21:00.930Z,43.73
2018-12-16T07:23:29.862Z,46.20
2018-12-16T07:27:22.807Z,44.25
2018-12-16T07:29:50.564Z,41.10
2018-12-16T07:32:18.972Z,42.58
2018-12-16T07:34:46.793Z,42.70
2018-12-16T07:37:18.923Z,46.35
2018-12-16T07:39:43.762Z,40.12
2018-12-16T07:42:11.431Z,37.20
2018-12-16T07:44:39.302Z,43.78
2018-12-16T07:47:06.991Z,42.30
2018-12-16T07:49:34.567Z,47.35
2018-12-16T07:52:02.244Z,41.50
2018-12-16T07:54:30.309Z,38.95
2018-12-16T07:56:58.457Z,44.40
2018-12-16T07:59:26.149Z,43.50
2018-12-16T08:01:54.308Z,42.40
2018-12-16T08:04:21.984Z,36.00
2018-12-16T08:06:50.193Z,43.50
2018-12-16T08:09:18.026Z,43.73
2018-12-16T08:11:46.313Z,40.15
2018-12-16T08:14:13.826Z,42.80
2018-12-16T08:16:41.379Z,42.73
2018-12-16T08:19:09.529Z,40.65
2018-12-16T08:21:37.179Z,38.10
2018-12-16T08:24:05.287Z,47.48
2018-12-16T08:26:32.751Z,41.75
2018-12-16T08:29:02.358Z,49.03
2018-12-16T08:31:30.044Z,38.65
2018-12-16T08:33:57.532Z,44.10
2018-12-16T08:36:25.123Z,52.55
2018-12-16T08:38:53.205Z,48.73
2018-12-16T08:41:21.926Z,46.45
2018-12-16T08:43:49.377Z,44.30
2018-12-16T08:46:16.985Z,64.60
2018-12-16T08:48:44.429Z,48.40
2018-12-16T08:51:12.835Z,55.80
2018-12-16T08:53:41.004Z,56.08
2018-12-16T08:56:08.575Z,58.65
2018-12-16T08:58:37.258Z,45.10
2018-12-16T09:01:04.774Z,41.30
2018-12-16T09:03:32.394Z,45.03
2018-12-16T09:05:59.802Z,42.00
2018-12-16T09:08:27.596Z,44.20
2018-12-16T09:10:55.002Z,47.83
2018-12-16T09:13:22.593Z,57.27
2018-12-16T09:15:50.204Z,42.50
2018-12-16T09:18:17.655Z,49.48
2018-12-16T09:20:45.096Z,35.52
2018-12-16T09:23:12.654Z,41.10
2018-12-16T09:25:41.032Z,48.42
2018-12-16T09:28:08.504Z,53.05
2018-12-16T09:30:36.303Z,42.60
2018-12-16T09:33:03.991Z,48.95
2018-12-16T09:35:32.232Z,41.50
2018-12-16T09:37:59.861Z,40.10
2018-12-16T09:40:27.328Z,38.75
2018-12-16T09:42:54.846Z,47.95
2018-12-16T09:45:22.418Z,44.95
2018-12-16T09:47:50.313Z,40.35
2018-12-16T09:50:17.853Z,44.98
2018-12-16T09:52:46.399Z,47.40
2018-12-16T09:55:14.015Z,41.50
2018-12-16T09:57:41.447Z,40.98
2018-12-16T10:00:09.986Z,40.35
2018-12-16T10:02:37.553Z,41.63
2018-12-16T10:05:06.279Z,40.45
2018-12-16T10:07:33.790Z,42.75
2018-12-16T10:10:01.300Z,37.03
2018-12-16T10:12:28.838Z,43.20
2018-12-16T10:14:57.118Z,42.23
2018-12-16T10:17:24.739Z,46.98
2018-12-16T10:19:52.782Z,43.40
2018-12-16T10:22:20.901Z,47.45
2018-12-16T10:24:51.483Z,53.75
2018-12-16T10:27:18.914Z,46.50
2018-12-16T10:29:46.710Z,50.90
2018-12-16T10:32:14.152Z,42.55
2018-12-16T10:34:41.771Z,46.75
2018-12-16T10:37:10.363Z,45.08
2018-12-16T10:39:37.786Z,37.70
2018-12-16T10:42:06.087Z,40.40
2018-12-16T10:44:34.527Z,44.95
2018-12-16T10:47:02.117Z,48.28
2018-12-16T10:49:29.824Z,41.23
2018-12-16T10:51:57.530Z,45.15
2018-12-16T10:54:25.846Z,41.37
2018-12-16T10:56:54.042Z,37.60
2018-12-16T10:59:21.630Z,43.25
2018-12-16T11:01:49.140Z,45.00
2018-12-16T11:04:16.866Z,56.25
2018-12-16T11:06:44.362Z,46.98
2018-12-16T11:09:11.954Z,58.23
2018-12-16T11:11:39.639Z,45.95
2018-12-16T11:14:07.182Z,49.27
2018-12-16T11:16:34.868Z,56.53
2018-12-16T11:19:02.676Z,49.00
2018-12-16T11:21:30.605Z,48.42
2018-12-16T11:23:59.415Z,48.92
2018-12-16T11:26:26.905Z,50.95
2018-12-16T11:28:54.598Z,54.90
2018-12-16T11:31:22.744Z,45.70
2018-12-16T11:33:50.278Z,58.52
2018-12-16T11:36:17.867Z,53.60
2018-12-16T11:38:45.993Z,54.38
2018-12-16T11:41:13.613Z,46.28
2018-12-16T11:43:41.174Z,48.55
2018-12-16T11:46:08.666Z,59.90
2018-12-16T11:48:36.271Z,58.83
2018-12-16T11:51:03.890Z,57.17
2018-12-16T11:53:31.431Z,49.85
2018-12-16T11:55:59.150Z,44.85
2018-12-16T11:58:28.615Z,52.90
2018-12-16T12:00:56.316Z,50.50
2018-12-16T12:03:24.511Z,48.83
2018-12-16T12:05:52.145Z,51.73
2018-12-16T12:08:19.571Z,57.55
2018-12-16T12:10:47.402Z,54.58
2018-12-16T12:13:14.878Z,54.67
2018-12-16T12:15:42.540Z,65.95
2018-12-16T12:18:10.159Z,62.05
2018-12-16T12:20:37.591Z,57.48
2018-12-16T12:23:05.560Z,56.18
2018-12-16T12:25:33.346Z,60.63
2018-12-16T12:28:01.198Z,52.88
2018-12-16T12:30:29.245Z,55.33
2018-12-16T12:32:56.817Z,51.35
2018-12-16T12:35:25.621Z,60.17
2018-12-16T12:37:53.295Z,58.10
2018-12-16T12:40:23.072Z,56.90
2018-12-16T12:42:50.747Z,71.82
2018-12-16T12:45:18.321Z,61.18
2018-12-16T12:47:46.014Z,65.20
2018-12-16T12:50:13.755Z,58.45
2018-12-16T12:52:41.339Z,53.45
2018-12-16T12:55:09.032Z,58.38
2018-12-16T12:57:38.530Z,55.40
2018-12-16T13:00:08.176Z,64.75
2018-12-16T13:02:35.806Z,68.25
2018-12-16T13:05:04.786Z,60.60
2018-12-16T13:07:32.437Z,55.75
2018-12-16T13:10:00.945Z,56.28
2018-12-16T13:12:28.457Z,49.13
2018-12-16T13:14:56.699Z,55.55
2018-12-16T13:17:24.730Z,50.43
2018-12-16T13:19:52.611Z,64.40
2018-12-16T13:22:20.078Z,58.25
2018-12-16T13:24:53.398Z,57.10
2018-12-16T13:27:21.025Z,62.88
2018-12-16T13:29:48.595Z,56.48
2018-12-16T13:32:17.925Z,53.25
2018-12-16T13:34:45.674Z,68.75
2018-12-16T13:37:13.404Z,61.35
2018-12-16T13:39:41.682Z,67.75
2018-12-16T13:42:11.805Z,58.60
2018-12-16T13:44:39.806Z,58.28
2018-12-16T13:47:08.034Z,69.32
2018-12-16T13:49:35.634Z,62.35
2018-12-16T13:52:03.251Z,58.50
2018-12-16T13:54:31.547Z,58.52
2018-12-16T13:57:00.087Z,62.83
2018-12-16T13:59:28.418Z,50.83
2018-12-16T14:01:55.898Z,61.85
2018-12-16T14:04:23.669Z,59.85
2018-12-16T14:07:17.324Z,67.17
2018-12-16T14:09:44.739Z,68.92
2018-12-16T14:12:12.471Z,59.83
2018-12-16T14:14:40.183Z,56.08
2018-12-16T14:17:07.702Z,61.20
2018-12-16T14:19:35.944Z,57.95
2018-12-16T14:22:03.481Z,61.25
2018-12-16T14:24:30.970Z,55.15
2018-12-16T14:26:58.498Z,59.75
2018-12-16T14:29:27.091Z,63.08
2018-12-16T14:31:54.676Z,57.40
2018-12-16T14:34:23.873Z,56.50
2018-12-16T14:36:51.586Z,64.95
2018-12-16T14:39:19.346Z,55.63
2018-12-16T14:41:47.113Z,69.97
2018-12-16T14:44:14.745Z,71.55
2018-12-16T14:46:42.250Z,70.40
2018-12-16T14:49:10.547Z,60.38
2018-12-16T14:51:38.744Z,62.23
2018-12-16T14:54:09.958Z,61.75
2018-12-16T14:56:37.518Z,68.87
2018-12-16T14:59:06.009Z,54.90
2018-12-16T15:01:34.467Z,67.72
2018-12-16T15:04:02.081Z,58.90
2018-12-16T15:06:29.609Z,63.15
2018-12-16T15:08:57.140Z,69.95
2018-12-16T15:11:25.069Z,59.75
2018-12-16T15:13:52.778Z,62.23
2018-12-16T15:16:20.466Z,67.82
2018-12-16T15:18:48.788Z,63.17
2018-12-16T15:21:16.516Z,69.50
2018-12-16T15:26:25.422Z,55.90
2018-12-16T15:28:53.529Z,56.13
2018-12-16T15:31:22.075Z,60.23
2018-12-16T15:33:50.745Z,60.90
2018-12-16T15:36:18.437Z,63.20
2018-12-16T15:38:46.882Z,62.08
2018-12-16T15:41:15.240Z,61.92
2018-12-16T15:43:42.764Z,54.55
2018-12-16T15:46:10.412Z,68.62
2018-12-16T15:48:38.029Z,69.07
2018-12-16T15:51:05.611Z,58.20
2018-12-16T15:53:33.407Z,58.92
2018-12-16T15:56:09.112Z,68.67
2018-12-16T15:58:32.827Z,54.85
2018-12-16T16:01:02.399Z,51.77
2018-12-16T16:03:30.151Z,67.32
2018-12-16T16:05:57.740Z,52.30
2018-12-16T16:08:25.396Z,56.80
2018-12-16T16:10:53.050Z,59.90
2018-12-16T16:13:21.416Z,65.90
2018-12-16T16:15:49.018Z,63.75
2018-12-16T16:18:16.532Z,70.57
2018-12-16T16:20:48.130Z,58.42
2018-12-16T16:23:17.055Z,65.78
2018-12-16T16:25:44.643Z,66.35
2018-12-16T16:28:12.156Z,77.58
2018-12-16T16:30:40.501Z,85.50
2018-12-16T16:33:08.196Z,60.15
2018-12-16T16:35:36.160Z,71.42
2018-12-16T16:38:04.123Z,65.55
2018-12-16T16:40:32.057Z,76.42
2018-12-16T16:42:59.581Z,70.83
2018-12-16T16:45:27.222Z,66.53
2018-12-16T16:47:54.831Z,56.13
2018-12-16T16:50:23.491Z,73.33
2018-12-16T16:52:50.956Z,69.03
2018-12-16T16:55:19.298Z,70.05
2018-12-16T16:57:46.796Z,68.20
2018-12-16T17:00:15.137Z,54.08
2018-12-16T17:02:42.843Z,58.65
2018-12-16T17:05:11.442Z,63.90
2018-12-16T17:07:39.865Z,64.62
2018-12-16T17:10:08.053Z,62.08
2018-12-16T17:12:38.916Z,83.10
2018-12-16T17:15:07.652Z,63.98
2018-12-16T17:17:35.722Z,73.47
2018-12-16T17:20:03.632Z,68.00
2018-12-16T17:22:31.242Z,73.00
2018-12-16T17:25:00.905Z,66.00
2018-12-16T17:27:28.670Z,84.37
2018-12-16T17:29:56.246Z,76.60
2018-12-16T17:32:36.026Z,74.58
2018-12-16T17:35:09.613Z,58.58
2018-12-16T17:40:33.481Z,129.47
2018-12-16T17:43:21.067Z,74.53
2018-12-16T17:45:57.849Z,62.80
2018-12-16T17:48:34.669Z,81.75
2018-12-16T17:51:05.212Z,74.32
2018-12-16T17:53:40.831Z,78.15
2018-12-16T17:56:25.398Z,68.25
2018-12-16T17:59:04.545Z,64.53
2018-12-16T18:01:38.576Z,65.70
2018-12-16T18:04:16.603Z,59.70
2018-12-16T18:06:45.510Z,65.15
2018-12-16T18:09:27.485Z,68.90
2018-12-16T18:12:04.173Z,74.37
2018-12-16T18:14:33.946Z,74.53
2018-12-16T18:17:03.943Z,70.67
2018-12-16T18:19:32.183Z,65.95
2018-12-16T18:22:13.851Z,75.37
2018-12-16T18:24:40.570Z,72.85
2018-12-16T18:27:13.255Z,73.62
2018-12-16T18:29:47.199Z,76.65
2018-12-16T18:32:17.195Z,66.05
2018-12-16T18:34:44.952Z,61.95
2018-12-16T18:37:13.089Z,70.12
2018-12-16T18:39:44.747Z,62.58
2018-12-16T18:42:16.101Z,67.40
2018-12-16T18:44:46.225Z,81.78
2018-12-16T18:47:14.149Z,71.47
2018-12-16T18:50:00.581Z,67.08
2018-12-16T18:52:29.972Z,66.92
2018-12-16T18:55:03.630Z,57.78
2018-12-16T18:57:43.323Z,64.70
2018-12-16T19:00:28.346Z,65.85
2018-12-16T19:02:58.286Z,87.55
2018-12-16T19:05:30.580Z,62.60
2018-12-16T19:08:00.119Z,71.60
2018-12-16T19:10:31.986Z,62.13
2018-12-16T19:13:05.897Z,69.60
2018-12-16T19:15:40.964Z,65.37
2018-12-16T19:18:16.160Z,65.78
2018-12-16T19:20:57.080Z,107.63
2018-12-16T19:23:33.707Z,68.92
2018-12-16T19:26:08.029Z,59.08
2018-12-16T19:28:38.906Z,75.55
2018-12-16T19:31:19.769Z,63.80
2018-12-16T19:33:47.626Z,61.00
2018-12-16T19:49:25.294Z,65.57
2018-12-16T19:51:55.342Z,60.65
2018-12-16T19:54:23.705Z,70.62
2018-12-16T19:56:51.351Z,72.78
2018-12-16T19:59:19.435Z,64.05
2018-12-16T20:01:50.049Z,54.38
2018-12-16T20:04:22.390Z,69.82
2018-12-16T20:06:51.160Z,66.77
2018-12-16T20:09:21.881Z,63.38
2018-12-16T20:11:53.154Z,69.60
2018-12-16T20:14:20.896Z,102.42
2018-12-16T20:16:56.451Z,71.15
2018-12-16T20:19:31.155Z,66.77
2018-12-16T20:22:01.559Z,64.47
2018-12-16T20:24:43.614Z,65.95
2018-12-16T20:27:23.555Z,77.45
2018-12-16T20:30:00.387Z,73.90
2018-12-16T20:32:35.120Z,70.37
2018-12-16T20:35:09.683Z,84.00
2018-12-16T20:37:38.196Z,69.07
2018-12-16T20:40:07.499Z,79.03
2018-12-16T20:42:35.092Z,70.70
2018-12-16T20:45:04.528Z,76.77
2018-12-16T20:47:32.166Z,91.57
2018-12-16T20:50:00.258Z,84.52
2018-12-16T20:52:27.869Z,71.25
2018-12-16T20:54:56.194Z,82.17
2018-12-16T20:57:23.794Z,105.10
2018-12-16T20:59:59.446Z,81.85
2018-12-16T21:02:27.170Z,81.65
2018-12-16T21:04:55.431Z,88.85
2018-12-16T21:07:24.389Z,97.90
2018-12-16T21:09:52.208Z,91.47
2018-12-16T21:12:26.301Z,89.05
2018-12-16T21:15:04.590Z,72.25
2018-12-16T21:17:45.972Z,93.97
2018-12-16T21:20:22.337Z,77.20
2018-12-16T21:22:53.102Z,81.90
2018-12-16T21:25:23.204Z,81.40
2018-12-16T21:27:54.038Z,71.45
2018-12-16T21:30:25.360Z,80.03
2018-12-16T21:32:55.934Z,102.92
2018-12-16T21:35:30.038Z,88.95
2018-12-16T21:37:58.203Z,108.30
2018-12-16T21:40:31.296Z,104.85
2018-12-16T21:43:00.891Z,96.97
2018-12-16T21:45:28.694Z,96.57
2018-12-16T21:47:56.922Z,100.65
2018-12-16T21:50:28.007Z,78.28
2018-12-16T21:52:57.855Z,108.57
2018-12-16T21:55:25.683Z,88.95
2018-12-16T21:57:54.244Z,106.52
2018-12-16T22:00:21.929Z,102.65
2018-12-16T22:02:51.596Z,99.87
2018-12-16T22:05:23.606Z,101.75
2018-12-16T22:07:51.310Z,94.65
2018-12-16T22:10:19.536Z,98.50
2018-12-16T22:12:48.776Z,98.10
2018-12-16T22:15:17.209Z,100.87
2018-12-16T22:17:44.702Z,96.60
2018-12-16T22:20:13.268Z,99.55
2018-12-16T22:22:40.866Z,109.25
2018-12-16T22:25:08.475Z,106.50
2018-12-16T22:27:40.206Z,91.25
2018-12-16T22:30:06.225Z,88.22
2018-12-16T22:32:33.776Z,113.40
2018-12-16T22:35:01.262Z,86.02
2018-12-16T22:37:29.421Z,98.05
2018-12-16T22:39:57.047Z,99.40
2018-12-16T22:42:24.667Z,113.40
2018-12-16T22:44:52.535Z,102.80
2018-12-16T22:47:20.052Z,119.28
2018-12-16T22:49:47.635Z,115.37
2018-12-16T22:52:15.301Z,104.63
2018-12-16T22:54:43.592Z,97.90
2018-12-16T22:57:11.216Z,108.90
2018-12-16T22:59:38.818Z,102.87
2018-12-16T23:02:06.949Z,113.62
2018-12-16T23:04:34.400Z,96.00
2018-12-16T23:07:01.955Z,113.70
2018-12-16T23:09:30.268Z,108.83
2018-12-16T23:11:58.371Z,108.35
2018-12-16T23:14:25.814Z,96.75
2018-12-16T23:16:53.367Z,96.45
2018-12-16T23:19:20.959Z,113.97
2018-12-16T23:21:48.466Z,96.55
2018-12-16T23:24:16.153Z,88.67
2018-12-16T23:26:43.673Z,98.70
2018-12-16T23:29:11.290Z,91.40
2018-12-16T23:31:39.770Z,94.55
2018-12-16T23:34:10.186Z,99.95
2018-12-16T23:36:37.881Z,107.80
2018-12-16T23:39:05.912Z,105.72
2018-12-16T23:41:33.542Z,111.65
2018-12-16T23:44:01.054Z,101.07
2018-12-16T23:46:31.019Z,104.40
2018-12-16T23:48:58.573Z,85.62
2018-12-16T23:51:26.154Z,86.70
2018-12-16T23:53:54.585Z,99.52
2018-12-16T23:56:22.187Z,93.78
2018-12-16T23:58:49.735Z,83.82
